Livorno Express — ZCDV9 — position and weather

sailwx.info

Track history (hours):
 
Tides and Currents Weather Stations Pressure Air Temp Water Temp Dewpoint Dewpoint Depression Visibility Wind Speed Wind Dir Waves Ship Positions

Livorno Express

Last reported at 2014-Sep-22 22:09 UTC. Time now 2014-Sep-23 02:24 UTC.
Position N 36°04' E 015°54'.

Type: Cargo ship. MMSI: 310541000.

Date/timePositionNaut miles runAvg speedWind from/ knotsBaromVisibWave heightAir tempDewpointWater temp
2014-Sep-22 22:09N 36°04' E 015°54'4316.3
2014-Sep-22 19:31N 36°17' E 015°03'3316.4
2014-Sep-22 17:31N 36°31' E 014°26'1717.2
2014-Sep-22 16:33N 36°37' E 014°07'1818.1
2014-Sep-22 15:34N 36°44' E 013°46'1817.8
2014-Sep-22 14:34N 36°51' E 013°25'1717.5
2014-Sep-22 13:34N 36°57' E 013°05'1717.1
2014-Sep-22 12:34N 37°03' E 012°45'2016.9
2014-Sep-22 11:24N 37°16' E 012°26'15116.7
2014-Sep-22 02:24N 38°44' E 009°51'1616.9
2014-Sep-22 01:27N 38°53' E 009°34'1213.6
2014-Sep-22 00:33N 38°59' E 009°21'6 5.9
2014-Sep-21 23:33N 39°03' E 009°15'1010.4
2014-Sep-21 22:33N 39°11' E 009°06'3 2.5
2014-Sep-21 21:32N 39°13' E 009°04'0 0.0
2014-Sep-21 20:32N 39°13' E 009°04'0 0.0
2014-Sep-21 19:32N 39°13' E 009°04'0 0.0
2014-Sep-21 18:32N 39°13' E 009°04'0 0.0
2014-Sep-21 17:32N 39°13' E 009°04'0 0.0
2014-Sep-21 16:32N 39°13' E 009°04'0 0.0
2014-Sep-21 15:32N 39°13' E 009°04'0 0.0
2014-Sep-21 14:32N 39°13' E 009°04'0 0.0
2014-Sep-21 13:32N 39°13' E 009°04'0 0.0
2014-Sep-21 12:32N 39°13' E 009°04'0 0.0
2014-Sep-21 11:32N 39°13' E 009°04'0 0.0
2014-Sep-21 10:32N 39°13' E 009°04'0 0.0
2014-Sep-21 09:32N 39°13' E 009°04'0 0.0
2014-Sep-21 08:32N 39°13' E 009°04'0 0.0
2014-Sep-21 07:32N 39°13' E 009°04'0 0.0
2014-Sep-21 06:32N 39°13' E 009°04'0 0.0
2014-Sep-21 05:32N 39°13' E 009°04'0 0.0
2014-Sep-21 04:32N 39°13' E 009°04'0 0.0
2014-Sep-21 03:32N 39°13' E 009°04'0 0.0
2014-Sep-21 02:32N 39°13' E 009°04'0 0.0
2014-Sep-21 01:32N 39°13' E 009°04'0 0.0
2014-Sep-21 00:32N 39°13' E 009°04'0 0.0
2014-Sep-20 23:32N 39°13' E 009°04'0 0.0
2014-Sep-20 22:33N 39°13' E 009°04'3 3.1
2014-Sep-20 21:33N 39°10' E 009°07'1010.0
2014-Sep-20 20:33N 39°03' E 009°15'1717.2
2014-Sep-20 19:33N 38°57' E 009°35'1817.6
2014-Sep-20 18:33N 39°03' E 009°56'16618.0
2014-Sep-20 09:20N 40°05' E 013°17'1418.2
2014-Sep-20 08:33N 40°11' E 013°34'1717.1
2014-Sep-20 07:33N 40°17' E 013°55'37 1.1
2014-Sep-18 20:31N 40°50' E 014°17'0 0.0
2014-Sep-18 19:31N 40°50' E 014°17'0 0.0
2014-Sep-18 18:31N 40°50' E 014°17'0 0.0
2014-Sep-18 17:31N 40°50' E 014°17'0 0.0
2014-Sep-18 16:31N 40°50' E 014°17'0 0.0
2014-Sep-18 15:31N 40°50' E 014°17'0 0.0
2014-Sep-18 14:28N 40°50' E 014°17'0 0.0
2014-Sep-18 13:31N 40°50' E 014°17'1 1.4
2014-Sep-18 12:33N 40°49' E 014°17'3112.8
2014-Sep-18 10:07N 40°37' E 013°39'12618.1
2014-Sep-18 03:08N 41°31' E 011°07'1017.6
2014-Sep-18 02:33N 41°37' E 010°56'7915.9
2014-Sep-17 21:33N 42°41' E 009°53'2317.5
2014-Sep-17 20:14N 43°04' E 010°01'1218.3
2014-Sep-17 19:33N 43°15' E 010°07'1716.7
2014-Sep-17 18:33N 43°31' E 010°14'5 4.7
2014-Sep-17 17:33N 43°34' E 010°18'0 0.0
2014-Sep-17 16:33N 43°34' E 010°18'0 0.0
2014-Sep-17 15:33N 43°34' E 010°18'0 0.0
2014-Sep-17 14:33N 43°34' E 010°18'0 0.0
2014-Sep-17 13:30N 43°34' E 010°18'0 0.0
2014-Sep-17 12:33N 43°34' E 010°18'0 0.0
2014-Sep-17 11:33N 43°34' E 010°18'0 0.0
2014-Sep-17 10:27N 43°34' E 010°18'0 0.0
2014-Sep-17 09:33N 43°34' E 010°18'0 0.0
2014-Sep-17 08:33N 43°34' E 010°18'0 0.0
2014-Sep-17 07:30N 43°34' E 010°18'0 0.0
2014-Sep-17 06:33N 43°34' E 010°18'0 0.0
2014-Sep-17 05:33N 43°34' E 010°18'0 0.0
2014-Sep-17 04:33N 43°34' E 010°18'0 0.5
2014-Sep-17 03:33N 43°34' E 010°18'7 7.5
2014-Sep-17 02:34N 43°29' E 010°10'1312.6
2014-Sep-17 01:33N 43°33' E 009°54'1716.6
2014-Sep-17 00:34N 43°41' E 009°33'1616.3
2014-Sep-16 23:33N 43°53' E 009°18'1716.5
2014-Sep-16 22:33N 44°05' E 009°03'1716.7
2014-Sep-16 21:33N 44°18' E 008°48'7 7.4
2014-Sep-16 20:33N 44°25' E 008°47'0 0.0
2014-Sep-16 19:30N 44°25' E 008°47'0 0.0
2014-Sep-16 18:33N 44°25' E 008°47'0 0.0
2014-Sep-16 17:30N 44°25' E 008°47'0 0.0
2014-Sep-16 16:30N 44°25' E 008°47'0 0.0
2014-Sep-16 15:33N 44°25' E 008°47'0 0.0
2014-Sep-16 14:30N 44°25' E 008°47'0 0.0
2014-Sep-16 13:30N 44°25' E 008°47'0 0.0
2014-Sep-16 12:33N 44°25' E 008°47'0 0.0
2014-Sep-16 11:33N 44°25' E 008°47'0 0.0
2014-Sep-16 10:33N 44°25' E 008°47'0 0.0
2014-Sep-16 09:31N 44°25' E 008°47'0 0.0
2014-Sep-16 08:28N 44°25' E 008°47'0 0.0
2014-Sep-16 07:31N 44°25' E 008°47'0 0.0
2014-Sep-16 06:31N 44°25' E 008°47'0 0.0
2014-Sep-16 05:31N 44°25' E 008°47'0 0.0
2014-Sep-16 04:31N 44°25' E 008°47'0 0.0
2014-Sep-16 03:31N 44°25' E 008°47'0 0.0
2014-Sep-16 02:31N 44°25' E 008°47'0 0.0
2014-Sep-16 01:31N 44°25' E 008°47'0 0.0
2014-Sep-16 00:31N 44°25' E 008°47'0 0.0
2014-Sep-15 23:31N 44°25' E 008°47'0 0.0
2014-Sep-15 22:31N 44°25' E 008°47'0 0.0
2014-Sep-15 21:31N 44°25' E 008°47'0 0.0
2014-Sep-15 20:31N 44°25' E 008°47'0 0.0
2014-Sep-15 19:31N 44°25' E 008°47'0 0.0
2014-Sep-15 18:28N 44°25' E 008°47'0 0.0
2014-Sep-15 17:33N 44°25' E 008°47'4 3.6
2014-Sep-15 16:33N 44°23' E 008°43'3 3.0
2014-Sep-15 15:33N 44°20' E 008°42'1514.5
2014-Sep-15 14:33N 44°05' E 008°39'1616.4
2014-Sep-15 13:34N 43°49' E 008°37'1616.5
2014-Sep-15 12:34N 43°33' E 008°31'1817.0
2014-Sep-15 11:30N 43°15' E 008°27'1817.1
2014-Sep-15 10:26N 42°57' E 008°23'23216.5
2014-Sep-14 20:21N 39°06' E 008°08'1315.8
2014-Sep-14 19:33N 38°54' E 008°16'1515.1
2014-Sep-14 18:33N 38°45' E 008°30'1615.8
2014-Sep-14 17:33N 38°44' E 008°51'1615.7
2014-Sep-14 16:33N 38°55' E 009°05'1312.8
2014-Sep-14 15:33N 39°08' E 009°06'5 4.6
2014-Sep-14 14:31N 39°13' E 009°04'0 0.0
2014-Sep-14 13:25N 39°13' E 009°04'0 0.0
2014-Sep-14 12:28N 39°13' E 009°04'0 0.0
2014-Sep-14 11:31N 39°13' E 009°04'0 0.0
2014-Sep-14 10:25N 39°13' E 009°04'0 0.0
2014-Sep-14 09:28N 39°13' E 009°04'0 0.0
2014-Sep-14 08:31N 39°13' E 009°04'0 0.0
2014-Sep-14 07:22N 39°13' E 009°04'0 0.0
2014-Sep-14 06:28N 39°13' E 009°04'0 0.0
2014-Sep-14 05:28N 39°13' E 009°04'0 0.0
2014-Sep-14 04:31N 39°13' E 009°04'0 0.0
2014-Sep-14 03:33N 39°13' E 009°04'0 0.0
2014-Sep-14 02:28N 39°13' E 009°04'0 0.0
2014-Sep-14 01:31N 39°13' E 009°04'7 1.7
2014-Sep-13 21:33N 39°07' E 009°07'1313.2
2014-Sep-13 20:33N 38°59' E 009°21'19417.5
2014-Sep-13 09:27N 36°59' E 012°35'3818.4
2014-Sep-13 07:24N 36°44' E 013°18'1518.1
2014-Sep-13 06:33N 36°38' E 013°36'1717.2
2014-Sep-13 05:33N 36°32' E 013°56'1717.3
2014-Sep-13 04:33N 36°26' E 014°16'1818.3
2014-Sep-13 03:33N 36°19' E 014°37'1818.1
2014-Sep-13 02:33N 36°13' E 014°58'1818.1
2014-Sep-13 01:33N 36°07' E 015°19'2618.3
2014-Sep-13 00:09N 36°01' E 015°50'  
Track history (hours):
 
Tides and Currents Weather Stations Pressure Air Temp Water Temp Dewpoint Dewpoint Depression Visibility Wind Speed Wind Dir Waves Ship Positions

Livorno Express

Last reported at 2014-Sep-22 22:09 UTC. Time now 2014-Sep-23 02:24 UTC.
Position N 36°04' E 015°54'.

Type: Cargo ship. MMSI: 310541000.

Date/timePositionNaut miles runAvg speedWind from/ knotsBaromVisibWave heightAir tempDewpointWater temp
2014-Sep-22 22:09N 36°04' E 015°54'4316.3
2014-Sep-22 19:31N 36°17' E 015°03'3316.4
2014-Sep-22 17:31N 36°31' E 014°26'1717.2
2014-Sep-22 16:33N 36°37' E 014°07'1818.1
2014-Sep-22 15:34N 36°44' E 013°46'1817.8
2014-Sep-22 14:34N 36°51' E 013°25'1717.5
2014-Sep-22 13:34N 36°57' E 013°05'1717.1
2014-Sep-22 12:34N 37°03' E 012°45'2016.9
2014-Sep-22 11:24N 37°16' E 012°26'15116.7
2014-Sep-22 02:24N 38°44' E 009°51'1616.9
2014-Sep-22 01:27N 38°53' E 009°34'1213.6
2014-Sep-22 00:33N 38°59' E 009°21'6 5.9
2014-Sep-21 23:33N 39°03' E 009°15'1010.4
2014-Sep-21 22:33N 39°11' E 009°06'3 2.5
2014-Sep-21 21:32N 39°13' E 009°04'0 0.0
2014-Sep-21 20:32N 39°13' E 009°04'0 0.0
2014-Sep-21 19:32N 39°13' E 009°04'0 0.0
2014-Sep-21 18:32N 39°13' E 009°04'0 0.0
2014-Sep-21 17:32N 39°13' E 009°04'0 0.0
2014-Sep-21 16:32N 39°13' E 009°04'0 0.0
2014-Sep-21 15:32N 39°13' E 009°04'0 0.0
2014-Sep-21 14:32N 39°13' E 009°04'0 0.0
2014-Sep-21 13:32N 39°13' E 009°04'0 0.0
2014-Sep-21 12:32N 39°13' E 009°04'0 0.0
2014-Sep-21 11:32N 39°13' E 009°04'0 0.0
2014-Sep-21 10:32N 39°13' E 009°04'0 0.0
2014-Sep-21 09:32N 39°13' E 009°04'0 0.0
2014-Sep-21 08:32N 39°13' E 009°04'0 0.0
2014-Sep-21 07:32N 39°13' E 009°04'0 0.0
2014-Sep-21 06:32N 39°13' E 009°04'0 0.0
2014-Sep-21 05:32N 39°13' E 009°04'0 0.0
2014-Sep-21 04:32N 39°13' E 009°04'0 0.0
2014-Sep-21 03:32N 39°13' E 009°04'0 0.0
2014-Sep-21 02:32N 39°13' E 009°04'0 0.0
2014-Sep-21 01:32N 39°13' E 009°04'0 0.0
2014-Sep-21 00:32N 39°13' E 009°04'0 0.0
2014-Sep-20 23:32N 39°13' E 009°04'0 0.0
2014-Sep-20 22:33N 39°13' E 009°04'3 3.1
2014-Sep-20 21:33N 39°10' E 009°07'1010.0
2014-Sep-20 20:33N 39°03' E 009°15'1717.2
2014-Sep-20 19:33N 38°57' E 009°35'1817.6
2014-Sep-20 18:33N 39°03' E 009°56'16618.0
2014-Sep-20 09:20N 40°05' E 013°17'1418.2
2014-Sep-20 08:33N 40°11' E 013°34'1717.1
2014-Sep-20 07:33N 40°17' E 013°55'37 1.1
2014-Sep-18 20:31N 40°50' E 014°17'0 0.0
2014-Sep-18 19:31N 40°50' E 014°17'0 0.0
2014-Sep-18 18:31N 40°50' E 014°17'0 0.0
2014-Sep-18 17:31N 40°50' E 014°17'0 0.0
2014-Sep-18 16:31N 40°50' E 014°17'0 0.0
2014-Sep-18 15:31N 40°50' E 014°17'0 0.0
2014-Sep-18 14:28N 40°50' E 014°17'0 0.0
2014-Sep-18 13:31N 40°50' E 014°17'1 1.4
2014-Sep-18 12:33N 40°49' E 014°17'3112.8
2014-Sep-18 10:07N 40°37' E 013°39'12618.1
2014-Sep-18 03:08N 41°31' E 011°07'1017.6
2014-Sep-18 02:33N 41°37' E 010°56'7915.9
2014-Sep-17 21:33N 42°41' E 009°53'2317.5
2014-Sep-17 20:14N 43°04' E 010°01'1218.3
2014-Sep-17 19:33N 43°15' E 010°07'1716.7
2014-Sep-17 18:33N 43°31' E 010°14'5 4.7
2014-Sep-17 17:33N 43°34' E 010°18'0 0.0
2014-Sep-17 16:33N 43°34' E 010°18'0 0.0
2014-Sep-17 15:33N 43°34' E 010°18'0 0.0
2014-Sep-17 14:33N 43°34' E 010°18'0 0.0
2014-Sep-17 13:30N 43°34' E 010°18'0 0.0
2014-Sep-17 12:33N 43°34' E 010°18'0 0.0
2014-Sep-17 11:33N 43°34' E 010°18'0 0.0
2014-Sep-17 10:27N 43°34' E 010°18'0 0.0
2014-Sep-17 09:33N 43°34' E 010°18'0 0.0
2014-Sep-17 08:33N 43°34' E 010°18'0 0.0
2014-Sep-17 07:30N 43°34' E 010°18'0 0.0
2014-Sep-17 06:33N 43°34' E 010°18'0 0.0
2014-Sep-17 05:33N 43°34' E 010°18'0 0.0
2014-Sep-17 04:33N 43°34' E 010°18'0 0.5
2014-Sep-17 03:33N 43°34' E 010°18'7 7.5
2014-Sep-17 02:34N 43°29' E 010°10'1312.6
2014-Sep-17 01:33N 43°33' E 009°54'1716.6
2014-Sep-17 00:34N 43°41' E 009°33'1616.3
2014-Sep-16 23:33N 43°53' E 009°18'1716.5
2014-Sep-16 22:33N 44°05' E 009°03'1716.7
2014-Sep-16 21:33N 44°18' E 008°48'7 7.4
2014-Sep-16 20:33N 44°25' E 008°47'0 0.0
2014-Sep-16 19:30N 44°25' E 008°47'0 0.0
2014-Sep-16 18:33N 44°25' E 008°47'0 0.0
2014-Sep-16 17:30N 44°25' E 008°47'0 0.0
2014-Sep-16 16:30N 44°25' E 008°47'0 0.0
2014-Sep-16 15:33N 44°25' E 008°47'0 0.0
2014-Sep-16 14:30N 44°25' E 008°47'0 0.0
2014-Sep-16 13:30N 44°25' E 008°47'0 0.0
2014-Sep-16 12:33N 44°25' E 008°47'0 0.0
2014-Sep-16 11:33N 44°25' E 008°47'0 0.0
2014-Sep-16 10:33N 44°25' E 008°47'0 0.0
2014-Sep-16 09:31N 44°25' E 008°47'0 0.0
2014-Sep-16 08:28N 44°25' E 008°47'0 0.0
2014-Sep-16 07:31N 44°25' E 008°47'0 0.0
2014-Sep-16 06:31N 44°25' E 008°47'0 0.0
2014-Sep-16 05:31N 44°25' E 008°47'0 0.0
2014-Sep-16 04:31N 44°25' E 008°47'0 0.0
2014-Sep-16 03:31N 44°25' E 008°47'0 0.0
2014-Sep-16 02:31N 44°25' E 008°47'0 0.0
2014-Sep-16 01:31N 44°25' E 008°47'0 0.0
2014-Sep-16 00:31N 44°25' E 008°47'0 0.0
2014-Sep-15 23:31N 44°25' E 008°47'0 0.0
2014-Sep-15 22:31N 44°25' E 008°47'0 0.0
2014-Sep-15 21:31N 44°25' E 008°47'0 0.0
2014-Sep-15 20:31N 44°25' E 008°47'0 0.0
2014-Sep-15 19:31N 44°25' E 008°47'0 0.0
2014-Sep-15 18:28N 44°25' E 008°47'0 0.0
2014-Sep-15 17:33N 44°25' E 008°47'4 3.6
2014-Sep-15 16:33N 44°23' E 008°43'3 3.0
2014-Sep-15 15:33N 44°20' E 008°42'1514.5
2014-Sep-15 14:33N 44°05' E 008°39'1616.4
2014-Sep-15 13:34N 43°49' E 008°37'1616.5
2014-Sep-15 12:34N 43°33' E 008°31'1817.0
2014-Sep-15 11:30N 43°15' E 008°27'1817.1
2014-Sep-15 10:26N 42°57' E 008°23'23216.5
2014-Sep-14 20:21N 39°06' E 008°08'1315.8
2014-Sep-14 19:33N 38°54' E 008°16'1515.1
2014-Sep-14 18:33N 38°45' E 008°30'1615.8
2014-Sep-14 17:33N 38°44' E 008°51'1615.7
2014-Sep-14 16:33N 38°55' E 009°05'1312.8
2014-Sep-14 15:33N 39°08' E 009°06'5 4.6
2014-Sep-14 14:31N 39°13' E 009°04'0 0.0
2014-Sep-14 13:25N 39°13' E 009°04'0 0.0
2014-Sep-14 12:28N 39°13' E 009°04'0 0.0
2014-Sep-14 11:31N 39°13' E 009°04'0 0.0
2014-Sep-14 10:25N 39°13' E 009°04'0 0.0
2014-Sep-14 09:28N 39°13' E 009°04'0 0.0
2014-Sep-14 08:31N 39°13' E 009°04'0 0.0
2014-Sep-14 07:22N 39°13' E 009°04'0 0.0
2014-Sep-14 06:28N 39°13' E 009°04'0 0.0
2014-Sep-14 05:28N 39°13' E 009°04'0 0.0
2014-Sep-14 04:31N 39°13' E 009°04'0 0.0
2014-Sep-14 03:33N 39°13' E 009°04'0 0.0
2014-Sep-14 02:28N 39°13' E 009°04'0 0.0
2014-Sep-14 01:31N 39°13' E 009°04'7 1.7
2014-Sep-13 21:33N 39°07' E 009°07'1313.2
2014-Sep-13 20:33N 38°59' E 009°21'19417.5
2014-Sep-13 09:27N 36°59' E 012°35'3818.4
2014-Sep-13 07:24N 36°44' E 013°18'1518.1
2014-Sep-13 06:33N 36°38' E 013°36'1717.2
2014-Sep-13 05:33N 36°32' E 013°56'1717.3
2014-Sep-13 04:33N 36°26' E 014°16'1818.3
2014-Sep-13 03:33N 36°19' E 014°37'1818.1
2014-Sep-13 02:33N 36°13' E 014°58'1818.1
2014-Sep-13 01:33N 36°07' E 015°19'2618.3
2014-Sep-13 00:09N 36°01' E 015°50'  

Dump ship's entire track history